Time;durP1;ratioP1;P1;durP2;ratioP2;P2;SDS_P1;SDS_P2;PMS_P1;PMS_P2;Temp;Humidity;BMP_temperature;BMP_pressure;BME280_temperature;BME280_humidity;BME280_pressure;Samples;Min_cycle;Max_cycle;Signal;HPM_P1;HPM_P2
2022/03/26 00:00:47;;;;;;;16.53;4.47;;;;;;;;;;5008067;28;20236;-64
2022/03/26 00:03:14;;;;;;;12.93;4.60;;;;;;;;;;5001654;28;20199;-64
2022/03/26 00:05:43;;;;;;;13.93;4.30;;;;;;;;;;5010539;28;20219;-65
2022/03/26 00:08:13;;;;;;;8.30;3.60;;;;;;;;;;5008708;28;20216;-66
2022/03/26 00:10:40;;;;;;;12.03;4.53;;;;;;;;;;5024602;28;20275;-66
2022/03/26 00:13:07;;;;;;;15.27;4.60;;;;;;;;;;5009054;28;20204;-65
2022/03/26 00:15:34;;;;;;;9.47;4.30;;;;;;;;;;5008943;28;20292;-64
2022/03/26 00:18:01;;;;;;;9.07;4.20;;;;;;;;;;5022626;28;20885;-64
2022/03/26 00:20:28;;;;;;;12.67;4.50;;;;;;;;;;5009004;28;20307;-64
2022/03/26 00:22:55;;;;;;;14.70;4.50;;;;;;;;;;4994751;28;20196;-66
2022/03/26 00:25:21;;;;;;;8.50;4.33;;;;;;;;;;5009712;28;20227;-64
2022/03/26 00:27:49;;;;;;;9.93;4.00;;;;;;;;;;4993388;28;21006;-64
2022/03/26 00:30:15;;;;;;;9.90;4.60;;;;;;;;;;5022626;28;20204;-64
2022/03/26 00:32:42;;;;;;;14.60;4.40;;;;;;;;;;5010800;28;20755;-65
2022/03/26 00:35:09;;;;;;;10.83;4.50;;;;;;;;;;5007484;28;20673;-65
2022/03/26 00:37:37;;;;;;;10.63;5.10;;;;;;;;;;5001271;28;20216;-64
2022/03/26 00:40:05;;;;;;;11.67;5.00;;;;;;;;;;5005821;28;20200;-64
2022/03/26 00:42:32;;;;;;;10.00;5.10;;;;;;;;;;5009689;28;20193;-63
2022/03/26 00:44:58;;;;;;;13.13;4.53;;;;;;;;;;5001379;28;20185;-65
2022/03/26 00:47:25;;;;;;;12.53;4.67;;;;;;;;;;5010559;28;20201;-65
2022/03/26 00:49:51;;;;;;;9.17;4.37;;;;;;;;;;5007242;28;20227;-64
2022/03/26 00:52:18;;;;;;;14.20;5.77;;;;;;;;;;5009283;28;20193;-65
2022/03/26 00:54:45;;;;;;;10.97;5.03;;;;;;;;;;5022062;28;20209;-66
2022/03/26 00:57:11;;;;;;;11.23;4.97;;;;;;;;;;5010705;28;20201;-65
2022/03/26 00:59:38;;;;;;;9.87;4.67;;;;;;;;;;5006301;28;20188;-65
2022/03/26 01:02:04;;;;;;;19.57;4.87;;;;;;;;;;5003180;28;20188;-65
2022/03/26 01:04:31;;;;;;;14.33;4.73;;;;;;;;;;5007591;28;20225;-64
2022/03/26 01:06:57;;;;;;;14.47;5.10;;;;;;;;;;5009663;28;20652;-64
2022/03/26 01:09:24;;;;;;;13.30;5.10;;;;;;;;;;5021437;28;20275;-67
2022/03/26 01:11:51;;;;;;;19.10;5.90;;;;;;;;;;5007352;28;20192;-64
2022/03/26 01:14:18;;;;;;;15.33;5.50;;;;;;;;;;5009039;28;20197;-64
2022/03/26 01:16:44;;;;;;;14.77;5.67;;;;;;;;;;5008967;28;20204;-64
2022/03/26 01:19:11;;;;;;;17.70;5.20;;;;;;;;;;4982800;28;20189;-65
2022/03/26 01:21:41;;;;;;;11.30;5.23;;;;;;;;;;5008986;28;20204;-65
2022/03/26 01:24:08;;;;;;;12.93;5.20;;;;;;;;;;5006525;28;20270;-65
2022/03/26 01:26:35;;;;;;;18.93;5.17;;;;;;;;;;5009954;28;20195;-64
2022/03/26 01:29:01;;;;;;;10.20;5.20;;;;;;;;;;5009129;28;20220;-64
2022/03/26 01:31:28;;;;;;;14.97;5.33;;;;;;;;;;5009206;28;20196;-64
2022/03/26 01:33:55;;;;;;;12.33;5.40;;;;;;;;;;5008218;28;20243;-65
2022/03/26 01:36:22;;;;;;;14.93;5.00;;;;;;;;;;4990575;28;20213;-65
2022/03/26 01:38:49;;;;;;;15.73;5.03;;;;;;;;;;4997240;28;20643;-65
2022/03/26 01:41:17;;;;;;;18.20;5.63;;;;;;;;;;5007113;28;20283;-66
2022/03/26 01:43:46;;;;;;;13.70;4.80;;;;;;;;;;4999451;28;20323;-64
2022/03/26 01:46:12;;;;;;;15.40;5.40;;;;;;;;;;5006686;28;20197;-65
2022/03/26 01:48:39;;;;;;;12.03;4.53;;;;;;;;;;5006480;28;20677;-64
2022/03/26 01:51:17;;;;;;;19.13;5.80;;;;;;;;;;4996767;28;20279;-65
2022/03/26 01:53:52;;;;;;;18.07;5.20;;;;;;;;;;5007114;28;20275;-64
2022/03/26 01:56:21;;;;;;;14.17;5.13;;;;;;;;;;5022927;28;20275;-64
2022/03/26 01:58:47;;;;;;;15.60;4.67;;;;;;;;;;5005101;28;20280;-67
2022/03/26 02:01:14;;;;;;;13.53;4.70;;;;;;;;;;5005877;28;20189;-65
2022/03/26 02:03:41;;;;;;;19.13;5.30;;;;;;;;;;5004991;28;20765;-64
2022/03/26 02:06:08;;;;;;;13.80;5.17;;;;;;;;;;5007516;28;20185;-64
2022/03/26 02:08:34;;;;;;;15.67;4.57;;;;;;;;;;5006039;28;20817;-64
2022/03/26 02:11:03;;;;;;;13.97;5.10;;;;;;;;;;5007629;28;20200;-64
2022/03/26 02:13:55;;;;;;;13.50;4.63;;;;;;;;;;5006912;28;20339;-64
2022/03/26 02:16:26;;;;;;;22.27;5.57;;;;;;;;;;5000305;28;20197;-65
2022/03/26 02:18:53;;;;;;;17.73;4.90;;;;;;;;;;4999699;28;20249;-64
2022/03/26 02:21:21;;;;;;;15.83;4.77;;;;;;;;;;5007373;28;20699;-65
2022/03/26 02:23:49;;;;;;;19.70;5.60;;;;;;;;;;5004469;28;20192;-64
2022/03/26 02:26:18;;;;;;;16.80;5.00;;;;;;;;;;5009305;28;20197;-64
2022/03/26 02:28:46;;;;;;;14.40;4.27;;;;;;;;;;5007257;28;20274;-66
2022/03/26 02:31:13;;;;;;;17.30;4.93;;;;;;;;;;5006851;28;20193;-66
2022/03/26 02:33:41;;;;;;;15.67;5.43;;;;;;;;;;5007015;28;20201;-64
2022/03/26 02:36:09;;;;;;;14.93;5.20;;;;;;;;;;5023863;28;20205;-65
2022/03/26 02:38:37;;;;;;;20.30;5.43;;;;;;;;;;5007232;28;20196;-66
2022/03/26 02:41:04;;;;;;;15.60;4.57;;;;;;;;;;4997126;28;20216;-65
2022/03/26 02:43:32;;;;;;;17.03;4.97;;;;;;;;;;5004822;28;20248;-64
2022/03/26 02:45:58;;;;;;;11.53;4.33;;;;;;;;;;5007874;28;20195;-67
2022/03/26 02:48:25;;;;;;;14.03;5.17;;;;;;;;;;5008128;28;20662;-65
2022/03/26 02:50:52;;;;;;;19.70;5.40;;;;;;;;;;5008628;28;20185;-64
2022/03/26 02:53:19;;;;;;;17.53;5.33;;;;;;;;;;5006002;28;20208;-64
2022/03/26 02:55:45;;;;;;;19.23;4.93;;;;;;;;;;5006161;28;20200;-64
2022/03/26 02:58:12;;;;;;;30.37;6.73;;;;;;;;;;5005360;28;20274;-65
2022/03/26 03:00:39;;;;;;;17.03;5.53;;;;;;;;;;4998568;28;20269;-66
2022/03/26 03:03:08;;;;;;;12.57;4.63;;;;;;;;;;5023545;28;20189;-64
2022/03/26 03:05:35;;;;;;;18.23;4.93;;;;;;;;;;5003290;28;20302;-67
2022/03/26 03:08:02;;;;;;;21.73;6.80;;;;;;;;;;4985473;28;20204;-65
2022/03/26 03:10:29;;;;;;;12.43;5.03;;;;;;;;;;5003080;28;20197;-64
2022/03/26 03:12:56;;;;;;;19.10;5.40;;;;;;;;;;4997078;28;20469;-65
2022/03/26 03:15:22;;;;;;;19.07;5.37;;;;;;;;;;5008157;28;20271;-64
2022/03/26 03:17:50;;;;;;;12.77;4.93;;;;;;;;;;4998063;28;20275;-64
2022/03/26 03:20:17;;;;;;;13.97;5.17;;;;;;;;;;4985603;28;20204;-64
2022/03/26 03:22:44;;;;;;;22.13;5.60;;;;;;;;;;5006192;28;20239;-64
2022/03/26 03:25:11;;;;;;;16.73;5.03;;;;;;;;;;4987550;28;20317;-64
2022/03/26 03:27:40;;;;;;;22.63;6.20;;;;;;;;;;5004295;28;20196;-66
2022/03/26 03:30:10;;;;;;;22.70;5.70;;;;;;;;;;5003987;28;20282;-64
2022/03/26 03:32:36;;;;;;;13.97;5.07;;;;;;;;;;5005666;28;20193;-64
2022/03/26 03:35:05;;;;;;;16.60;5.40;;;;;;;;;;5006424;28;20284;-63
2022/03/26 03:37:36;;;;;;;15.43;4.37;;;;;;;;;;5013101;28;20637;-65
2022/03/26 03:40:04;;;;;;;19.17;5.40;;;;;;;;;;5005733;28;20220;-64
2022/03/26 03:42:31;;;;;;;19.53;5.67;;;;;;;;;;5005833;28;20242;-64
2022/03/26 03:44:57;;;;;;;11.17;4.70;;;;;;;;;;5004829;28;20193;-64
2022/03/26 03:47:24;;;;;;;17.77;5.37;;;;;;;;;;5005063;28;20185;-67
2022/03/26 03:49:51;;;;;;;16.80;4.97;;;;;;;;;;4995259;28;20213;-64
2022/03/26 03:52:18;;;;;;;17.03;5.10;;;;;;;;;;5003350;28;20201;-64
2022/03/26 03:54:45;;;;;;;13.40;4.90;;;;;;;;;;5022491;28;20203;-64
2022/03/26 03:57:11;;;;;;;16.03;4.83;;;;;;;;;;5006506;28;20234;-64
2022/03/26 03:59:41;;;;;;;13.50;4.60;;;;;;;;;;4996994;28;20195;-64
2022/03/26 04:02:10;;;;;;;20.93;5.20;;;;;;;;;;5000813;28;20284;-65
2022/03/26 04:04:42;;;;;;;16.63;5.17;;;;;;;;;;4997837;28;20203;-66
2022/03/26 04:07:09;;;;;;;13.70;4.90;;;;;;;;;;5022575;28;20224;-65
2022/03/26 04:09:36;;;;;;;21.13;5.50;;;;;;;;;;5001033;28;20275;-63
2022/03/26 04:12:04;;;;;;;16.97;5.67;;;;;;;;;;5000136;28;20224;-66
2022/03/26 04:14:32;;;;;;;18.30;5.67;;;;;;;;;;5023067;28;20199;-64
2022/03/26 04:16:59;;;;;;;26.00;6.20;;;;;;;;;;5006097;28;20193;-64
2022/03/26 04:19:25;;;;;;;18.90;6.23;;;;;;;;;;5005210;28;20188;-64
2022/03/26 04:21:52;;;;;;;18.90;5.50;;;;;;;;;;5007379;28;20193;-64
2022/03/26 04:24:19;;;;;;;18.03;5.70;;;;;;;;;;5007045;28;20217;-64
2022/03/26 04:26:45;;;;;;;19.97;6.13;;;;;;;;;;5006132;28;20193;-65
2022/03/26 04:29:12;;;;;;;18.47;5.93;;;;;;;;;;5006855;28;20209;-64
2022/03/26 04:31:38;;;;;;;14.87;4.70;;;;;;;;;;4989455;28;20191;-64
2022/03/26 04:34:06;;;;;;;13.40;5.50;;;;;;;;;;5004651;28;20203;-65
2022/03/26 04:36:33;;;;;;;17.93;5.67;;;;;;;;;;5007868;28;20209;-64
2022/03/26 04:39:00;;;;;;;19.67;5.80;;;;;;;;;;5006697;28;20189;-64
2022/03/26 04:41:28;;;;;;;12.53;5.33;;;;;;;;;;5007872;28;20280;-65
2022/03/26 04:43:55;;;;;;;14.73;4.97;;;;;;;;;;5002847;28;20198;-65
2022/03/26 04:46:21;;;;;;;15.00;5.43;;;;;;;;;;5012380;28;20207;-65
2022/03/26 04:48:48;;;;;;;16.03;5.37;;;;;;;;;;5007485;28;20217;-64
2022/03/26 04:51:16;;;;;;;18.27;5.20;;;;;;;;;;5006733;28;20248;-64
2022/03/26 04:53:42;;;;;;;19.67;5.87;;;;;;;;;;5011374;28;20197;-64
2022/03/26 04:56:09;;;;;;;23.10;6.07;;;;;;;;;;5011184;28;20185;-67
2022/03/26 04:58:35;;;;;;;15.13;5.47;;;;;;;;;;5008342;28;20216;-66
2022/03/26 05:01:02;;;;;;;15.13;5.27;;;;;;;;;;5024960;28;20193;-63
2022/03/26 05:03:29;;;;;;;18.10;5.00;;;;;;;;;;5010027;28;20220;-64
2022/03/26 05:05:55;;;;;;;18.23;5.23;;;;;;;;;;5005470;28;20212;-65
2022/03/26 05:08:22;;;;;;;17.27;5.80;;;;;;;;;;5007080;28;20282;-64
2022/03/26 05:10:48;;;;;;;25.07;6.53;;;;;;;;;;5024514;28;20201;-65
2022/03/26 05:13:15;;;;;;;17.63;5.90;;;;;;;;;;5020179;28;20678;-65
2022/03/26 05:15:42;;;;;;;23.00;5.93;;;;;;;;;;5009871;28;20766;-64
2022/03/26 05:18:08;;;;;;;18.20;5.93;;;;;;;;;;4997416;28;20693;-64
2022/03/26 05:20:35;;;;;;;15.53;5.67;;;;;;;;;;5008133;28;21955;-64
2022/03/26 05:23:02;;;;;;;21.33;6.43;;;;;;;;;;5006563;28;20288;-66
2022/03/26 05:25:29;;;;;;;20.13;5.60;;;;;;;;;;5006808;28;20587;-64
2022/03/26 05:27:56;;;;;;;22.77;6.17;;;;;;;;;;5009726;28;20251;-63
2022/03/26 05:30:24;;;;;;;18.17;5.57;;;;;;;;;;5007837;28;20221;-66
2022/03/26 05:32:51;;;;;;;24.73;6.17;;;;;;;;;;5007081;28;20225;-66
2022/03/26 05:35:18;;;;;;;20.17;5.60;;;;;;;;;;5022060;28;20207;-64
2022/03/26 05:37:45;;;;;;;22.40;6.90;;;;;;;;;;4999684;28;20205;-65
2022/03/26 05:40:16;;;;;;;15.50;6.03;;;;;;;;;;5005617;28;20193;-64
2022/03/26 05:42:43;;;;;;;19.00;5.20;;;;;;;;;;5002297;28;20235;-65
2022/03/26 05:45:10;;;;;;;18.33;5.70;;;;;;;;;;4999041;28;20686;-64
2022/03/26 05:47:38;;;;;;;16.30;6.00;;;;;;;;;;5005652;28;20205;-65
2022/03/26 05:50:07;;;;;;;21.43;5.53;;;;;;;;;;5009822;28;20291;-67
2022/03/26 05:52:34;;;;;;;16.33;5.67;;;;;;;;;;5002080;28;20201;-64
2022/03/26 05:55:04;;;;;;;25.00;6.07;;;;;;;;;;5006231;28;20530;-65
2022/03/26 05:57:31;;;;;;;21.20;5.33;;;;;;;;;;5008843;28;20220;-64
2022/03/26 05:59:57;;;;;;;20.67;5.60;;;;;;;;;;5006728;28;20253;-65
2022/03/26 06:02:24;;;;;;;16.93;6.10;;;;;;;;;;5007584;28;20667;-66
2022/03/26 06:04:50;;;;;;;20.53;5.53;;;;;;;;;;5008656;28;20200;-64
2022/03/26 06:07:17;;;;;;;17.37;5.20;;;;;;;;;;5008095;28;20196;-66
2022/03/26 06:09:43;;;;;;;22.80;5.70;;;;;;;;;;5002810;28;20275;-65
2022/03/26 06:12:10;;;;;;;21.80;5.43;;;;;;;;;;5003745;28;20240;-65
2022/03/26 06:14:37;;;;;;;16.23;5.30;;;;;;;;;;5022664;28;20658;-65
2022/03/26 06:17:04;;;;;;;25.67;6.00;;;;;;;;;;5007793;28;20863;-65
2022/03/26 06:19:31;;;;;;;16.57;5.43;;;;;;;;;;5008131;28;20356;-64
2022/03/26 06:21:57;;;;;;;18.87;5.70;;;;;;;;;;5004715;28;20201;-65
2022/03/26 06:24:24;;;;;;;15.27;5.20;;;;;;;;;;4995623;28;20209;-67
2022/03/26 06:26:51;;;;;;;15.47;5.13;;;;;;;;;;5005150;28;20201;-65
2022/03/26 06:29:17;;;;;;;24.33;6.07;;;;;;;;;;4997548;28;20220;-65
2022/03/26 06:31:45;;;;;;;18.23;6.07;;;;;;;;;;5024042;28;20200;-64
2022/03/26 06:34:12;;;;;;;18.43;4.90;;;;;;;;;;5008393;28;20271;-64
2022/03/26 06:36:39;;;;;;;19.03;5.43;;;;;;;;;;5007588;28;20208;-64
2022/03/26 06:39:06;;;;;;;12.70;5.13;;;;;;;;;;5001252;28;20201;-66
2022/03/26 06:41:35;;;;;;;22.00;5.43;;;;;;;;;;5004532;28;20201;-65
2022/03/26 06:44:02;;;;;;;17.43;5.60;;;;;;;;;;5007209;28;20199;-65
2022/03/26 06:46:29;;;;;;;20.57;5.70;;;;;;;;;;5001769;28;20197;-64
2022/03/26 06:48:56;;;;;;;18.67;5.37;;;;;;;;;;5004128;28;20217;-65
2022/03/26 06:51:22;;;;;;;21.60;6.60;;;;;;;;;;5000757;28;20313;-65
2022/03/26 06:53:49;;;;;;;21.07;6.23;;;;;;;;;;5023915;28;20197;-65
2022/03/26 06:56:16;;;;;;;15.17;4.97;;;;;;;;;;5005231;28;20673;-65
2022/03/26 06:58:44;;;;;;;18.77;5.00;;;;;;;;;;5008040;28;20193;-65
2022/03/26 07:01:11;;;;;;;14.87;5.33;;;;;;;;;;5004536;28;20271;-65
2022/03/26 07:03:38;;;;;;;28.30;5.30;;;;;;;;;;5000373;28;20297;-64
2022/03/26 07:06:05;;;;;;;21.77;6.23;;;;;;;;;;4985852;28;20204;-66
2022/03/26 07:08:31;;;;;;;13.93;4.83;;;;;;;;;;5008649;28;20374;-65
2022/03/26 07:10:59;;;;;;;20.63;5.63;;;;;;;;;;5007239;28;20250;-64
2022/03/26 07:13:26;;;;;;;16.67;5.73;;;;;;;;;;5001033;28;20925;-64
2022/03/26 07:15:53;;;;;;;17.70;5.03;;;;;;;;;;5008085;28;20295;-66
2022/03/26 07:18:19;;;;;;;15.17;4.43;;;;;;;;;;4999593;28;20193;-65
2022/03/26 07:20:46;;;;;;;18.17;4.67;;;;;;;;;;5005235;28;20256;-65
2022/03/26 07:23:13;;;;;;;12.43;4.70;;;;;;;;;;5006322;28;20193;-66
2022/03/26 07:25:39;;;;;;;15.50;5.00;;;;;;;;;;5007082;28;20295;-65
2022/03/26 07:28:07;;;;;;;20.50;5.03;;;;;;;;;;5007196;28;20688;-65
2022/03/26 07:30:34;;;;;;;22.87;5.20;;;;;;;;;;4998485;28;20196;-66
2022/03/26 07:33:01;;;;;;;11.53;4.67;;;;;;;;;;5000025;28;20196;-65
2022/03/26 07:35:30;;;;;;;10.33;4.20;;;;;;;;;;5021058;28;20200;-65
2022/03/26 07:37:57;;;;;;;16.20;4.33;;;;;;;;;;5006734;28;20192;-65
2022/03/26 07:40:24;;;;;;;17.43;4.43;;;;;;;;;;4999567;28;20200;-65
2022/03/26 07:42:50;;;;;;;17.80;3.90;;;;;;;;;;5004527;28;20193;-64
2022/03/26 07:45:17;;;;;;;11.97;4.60;;;;;;;;;;4998896;28;20247;-64
2022/03/26 07:47:44;;;;;;;16.47;4.40;;;;;;;;;;5005117;28;20763;-65
2022/03/26 07:50:10;;;;;;;16.30;4.03;;;;;;;;;;4996020;28;20217;-65
2022/03/26 07:52:38;;;;;;;12.13;3.70;;;;;;;;;;5004271;28;20219;-64
2022/03/26 07:55:06;;;;;;;17.27;4.30;;;;;;;;;;5002773;28;20283;-64
2022/03/26 07:57:32;;;;;;;11.80;4.43;;;;;;;;;;5006466;28;20606;-65
2022/03/26 07:59:59;;;;;;;11.77;4.10;;;;;;;;;;5005651;28;20244;-65
2022/03/26 08:02:26;;;;;;;9.30;4.10;;;;;;;;;;5005669;28;20251;-66
2022/03/26 08:04:53;;;;;;;19.60;5.10;;;;;;;;;;5004992;28;20708;-66
2022/03/26 08:07:21;;;;;;;11.73;3.87;;;;;;;;;;4998607;28;20192;-64
2022/03/26 08:09:48;;;;;;;12.20;3.57;;;;;;;;;;4984444;28;20263;-65
2022/03/26 08:12:15;;;;;;;9.77;3.90;;;;;;;;;;5008109;28;20721;-67
2022/03/26 08:14:42;;;;;;;8.67;3.90;;;;;;;;;;5006106;28;20590;-65
2022/03/26 08:17:09;;;;;;;13.20;3.80;;;;;;;;;;5006181;28;20193;-64
2022/03/26 08:19:36;;;;;;;16.87;4.77;;;;;;;;;;5002033;28;20189;-65
2022/03/26 08:22:06;;;;;;;9.93;3.90;;;;;;;;;;4997765;28;21006;-64
2022/03/26 08:24:32;;;;;;;11.00;4.00;;;;;;;;;;5008849;28;20284;-65
2022/03/26 08:26:59;;;;;;;16.57;3.60;;;;;;;;;;5009739;28;20648;-65
2022/03/26 08:29:26;;;;;;;12.90;3.77;;;;;;;;;;5000954;28;20275;-64
2022/03/26 08:31:56;;;;;;;11.90;4.43;;;;;;;;;;5003184;28;20192;-64
2022/03/26 08:34:22;;;;;;;10.97;3.70;;;;;;;;;;5004847;28;20220;-64
2022/03/26 08:36:49;;;;;;;12.87;3.90;;;;;;;;;;5010815;28;20689;-66
2022/03/26 08:39:16;;;;;;;10.70;3.67;;;;;;;;;;5005757;28;20210;-66
2022/03/26 08:41:43;;;;;;;12.50;4.13;;;;;;;;;;5009242;28;20196;-65
2022/03/26 08:44:11;;;;;;;11.13;3.53;;;;;;;;;;5019247;28;20312;-65
2022/03/26 08:46:38;;;;;;;14.03;3.70;;;;;;;;;;5005861;28;20193;-65
2022/03/26 08:49:04;;;;;;;15.57;3.67;;;;;;;;;;5007984;28;20221;-66
2022/03/26 08:51:31;;;;;;;13.93;3.60;;;;;;;;;;5010293;28;20181;-65
2022/03/26 08:53:58;;;;;;;9.20;3.57;;;;;;;;;;5026243;28;20193;-67
2022/03/26 08:56:25;;;;;;;10.97;3.73;;;;;;;;;;4999291;28;20276;-65
2022/03/26 08:58:52;;;;;;;8.57;3.33;;;;;;;;;;5002986;28;20822;-65
2022/03/26 09:01:19;;;;;;;12.03;4.17;;;;;;;;;;5002358;28;20189;-66
2022/03/26 09:03:46;;;;;;;11.67;4.40;;;;;;;;;;5000159;28;20688;-65
2022/03/26 09:06:13;;;;;;;8.97;3.50;;;;;;;;;;5008858;28;20204;-66
2022/03/26 09:08:40;;;;;;;15.10;4.20;;;;;;;;;;5007802;28;20233;-65
2022/03/26 09:11:07;;;;;;;11.63;3.87;;;;;;;;;;5008618;28;20192;-66
2022/03/26 09:13:33;;;;;;;10.60;3.93;;;;;;;;;;5022005;28;20271;-65
2022/03/26 09:16:00;;;;;;;13.43;4.00;;;;;;;;;;5025421;28;20208;-65
2022/03/26 09:18:28;;;;;;;13.47;3.80;;;;;;;;;;5009739;28;20197;-65
2022/03/26 09:20:55;;;;;;;13.43;4.30;;;;;;;;;;5007987;28;20193;-65
2022/03/26 09:23:22;;;;;;;13.67;4.27;;;;;;;;;;5024139;28;20217;-64
2022/03/26 09:25:49;;;;;;;16.83;3.87;;;;;;;;;;5006604;28;20197;-66
2022/03/26 09:28:15;;;;;;;11.90;3.87;;;;;;;;;;5006983;28;20235;-65
2022/03/26 09:30:42;;;;;;;11.43;3.63;;;;;;;;;;5006833;28;20252;-65
2022/03/26 09:33:09;;;;;;;13.47;3.80;;;;;;;;;;5006445;28;20212;-64
2022/03/26 09:35:36;;;;;;;19.53;4.00;;;;;;;;;;5007423;28;20228;-66
2022/03/26 09:38:02;;;;;;;10.67;3.90;;;;;;;;;;5008629;28;20279;-65
2022/03/26 09:40:29;;;;;;;15.67;4.20;;;;;;;;;;5008216;28;20258;-66
2022/03/26 09:42:56;;;;;;;14.30;4.43;;;;;;;;;;5009237;28;20197;-64
2022/03/26 09:45:22;;;;;;;12.00;4.27;;;;;;;;;;5004294;28;20251;-66
2022/03/26 09:47:51;;;;;;;16.57;4.17;;;;;;;;;;5004810;28;20196;-65
2022/03/26 09:50:19;;;;;;;14.63;4.03;;;;;;;;;;5007464;28;20260;-65
2022/03/26 09:52:46;;;;;;;13.50;4.07;;;;;;;;;;5004472;28;20208;-64
2022/03/26 09:55:14;;;;;;;21.00;4.93;;;;;;;;;;4989045;28;20253;-65
2022/03/26 09:57:41;;;;;;;21.37;4.17;;;;;;;;;;5002595;28;20197;-66
2022/03/26 10:00:09;;;;;;;12.00;3.87;;;;;;;;;;5001226;28;20250;-65
2022/03/26 10:02:36;;;;;;;11.17;4.00;;;;;;;;;;5001926;28;20192;-65
2022/03/26 10:05:04;;;;;;;8.17;3.90;;;;;;;;;;5007862;28;20193;-64
2022/03/26 10:07:32;;;;;;;18.03;4.57;;;;;;;;;;5002639;28;20196;-66
2022/03/26 10:10:02;;;;;;;9.57;4.07;;;;;;;;;;4985706;28;20248;-65
2022/03/26 10:12:28;;;;;;;13.67;4.57;;;;;;;;;;5021186;28;20193;-64
2022/03/26 10:14:59;;;;;;;12.50;4.13;;;;;;;;;;5005255;28;20188;-65
2022/03/26 10:17:29;;;;;;;13.43;4.40;;;;;;;;;;5004134;28;20264;-66
2022/03/26 10:19:59;;;;;;;20.47;5.03;;;;;;;;;;4988963;28;20195;-65
2022/03/26 10:22:42;;;;;;;13.27;4.67;;;;;;;;;;5021357;28;20227;-65
2022/03/26 10:25:13;;;;;;;12.57;4.40;;;;;;;;;;5005315;28;20687;-65
2022/03/26 10:27:59;;;;;;;13.87;4.33;;;;;;;;;;4989988;28;20184;-64
2022/03/26 10:33:27;;;;;;;15.80;5.00;;;;;;;;;;5004362;28;20189;-65
2022/03/26 10:36:02;;;;;;;14.37;4.63;;;;;;;;;;4988135;28;20673;-64
2022/03/26 10:38:47;;;;;;;19.97;4.50;;;;;;;;;;5008367;28;20287;-66
2022/03/26 10:41:13;;;;;;;15.03;4.70;;;;;;;;;;5004679;28;20316;-66
2022/03/26 10:43:41;;;;;;;12.70;4.97;;;;;;;;;;4999165;28;20645;-64
2022/03/26 10:46:08;;;;;;;19.13;4.40;;;;;;;;;;5023103;28;20200;-64
2022/03/26 10:48:36;;;;;;;15.87;4.27;;;;;;;;;;5007053;28;20213;-64
2022/03/26 10:51:09;;;;;;;20.60;4.70;;;;;;;;;;4998195;28;20207;-68
2022/03/26 10:53:38;;;;;;;15.97;4.87;;;;;;;;;;5019595;28;20220;-66
2022/03/26 10:56:07;;;;;;;14.07;4.37;;;;;;;;;;5003010;28;20295;-65
2022/03/26 10:58:35;;;;;;;19.07;4.17;;;;;;;;;;5004674;28;20190;-67
2022/03/26 11:01:02;;;;;;;15.47;4.83;;;;;;;;;;5005677;28;20220;-65
2022/03/26 11:03:29;;;;;;;15.13;4.60;;;;;;;;;;5005902;28;20638;-64
2022/03/26 11:05:57;;;;;;;14.00;4.33;;;;;;;;;;5005633;28;20220;-67
2022/03/26 11:08:30;;;;;;;15.67;4.90;;;;;;;;;;5004277;28;20291;-65
2022/03/26 11:10:59;;;;;;;18.93;4.70;;;;;;;;;;5019385;28;20189;-67
2022/03/26 11:13:28;;;;;;;19.00;4.70;;;;;;;;;;5003028;28;20676;-66
2022/03/26 11:16:02;;;;;;;19.73;5.20;;;;;;;;;;5016869;28;20191;-65
2022/03/26 11:18:56;;;;;;;17.33;5.20;;;;;;;;;;5023867;28;20263;-64
2022/03/26 11:21:41;;;;;;;17.50;4.03;;;;;;;;;;5007380;28;20275;-64
2022/03/26 11:24:26;;;;;;;11.13;4.57;;;;;;;;;;5004556;28;20254;-64
2022/03/26 11:27:18;;;;;;;14.33;4.00;;;;;;;;;;5005986;28;20189;-66
2022/03/26 11:30:17;;;;;;;10.77;4.23;;;;;;;;;;5002864;28;20267;-66
2022/03/26 11:32:46;;;;;;;14.30;5.00;;;;;;;;;;5008161;28;20195;-64
2022/03/26 11:35:15;;;;;;;9.83;3.83;;;;;;;;;;5023423;28;20669;-65
2022/03/26 11:37:57;;;;;;;16.13;4.83;;;;;;;;;;4996658;28;20589;-64
2022/03/26 11:40:45;;;;;;;11.70;4.67;;;;;;;;;;4998917;28;20248;-68
2022/03/26 11:43:43;;;;;;;12.40;4.20;;;;;;;;;;4995701;28;20712;-65
2022/03/26 11:52:16;;;;;;;14.07;4.70;;;;;;;;;;5002436;28;20192;-65
2022/03/26 11:54:44;;;;;;;15.43;4.70;;;;;;;;;;5005345;28;20192;-66
2022/03/26 11:57:18;;;;;;;16.40;4.77;;;;;;;;;;5028968;28;20305;-64
2022/03/26 11:59:45;;;;;;;16.00;4.57;;;;;;;;;;5010811;28;21450;-64
2022/03/26 12:02:24;;;;;;;15.20;4.90;;;;;;;;;;5014878;28;20188;-64
2022/03/26 12:04:55;;;;;;;15.47;4.10;;;;;;;;;;5021284;28;20613;-67
2022/03/26 12:07:29;;;;;;;13.87;4.97;;;;;;;;;;5015466;28;20272;-67
2022/03/26 12:10:12;;;;;;;9.93;4.27;;;;;;;;;;4994463;28;20260;-65
2022/03/26 12:13:08;;;;;;;15.57;4.37;;;;;;;;;;5013294;28;20207;-65
2022/03/26 12:15:36;;;;;;;9.37;4.20;;;;;;;;;;4995945;28;20296;-67
2022/03/26 12:18:07;;;;;;;20.77;5.13;;;;;;;;;;5013409;28;20246;-65
2022/03/26 12:20:35;;;;;;;12.90;4.67;;;;;;;;;;5012032;28;20193;-65
2022/03/26 12:23:28;;;;;;;18.37;4.33;;;;;;;;;;5013394;28;20493;-65
2022/03/26 12:26:03;;;;;;;13.57;5.20;;;;;;;;;;5002279;28;20627;-65
2022/03/26 12:28:29;;;;;;;13.40;4.90;;;;;;;;;;5010175;28;20259;-66
2022/03/26 12:30:58;;;;;;;10.50;4.37;;;;;;;;;;5011981;28;20895;-66
2022/03/26 12:33:26;;;;;;;12.93;4.27;;;;;;;;;;5013135;28;20201;-65
2022/03/26 12:35:56;;;;;;;20.27;4.97;;;;;;;;;;5008780;28;20606;-64
2022/03/26 12:38:28;;;;;;;25.07;4.67;;;;;;;;;;5009662;28;20204;-65
2022/03/26 12:40:59;;;;;;;14.77;4.97;;;;;;;;;;5004726;28;22032;-64
2022/03/26 12:43:27;;;;;;;19.97;4.70;;;;;;;;;;5007992;28;20182;-66
2022/03/26 12:45:56;;;;;;;48.47;5.33;;;;;;;;;;5012430;28;20565;-67
2022/03/26 12:48:26;;;;;;;36.00;5.37;;;;;;;;;;5014280;28;20200;-67
2022/03/26 12:50:53;;;;;;;22.03;5.10;;;;;;;;;;5008270;28;20196;-63
2022/03/26 12:53:20;;;;;;;10.83;4.27;;;;;;;;;;5005788;28;20207;-65
2022/03/26 12:55:56;;;;;;;16.33;4.40;;;;;;;;;;5010117;28;20203;-65
2022/03/26 13:01:13;;;;;;;16.43;5.03;;;;;;;;;;5007780;28;20196;-63
2022/03/26 13:03:41;;;;;;;18.97;5.07;;;;;;;;;;5013382;28;20534;-64
2022/03/26 13:06:10;;;;;;;14.07;4.20;;;;;;;;;;5010683;28;20277;-64
2022/03/26 13:08:37;;;;;;;13.13;4.73;;;;;;;;;;5008244;28;20197;-66
2022/03/26 13:11:09;;;;;;;18.37;5.80;;;;;;;;;;5002901;28;20229;-66
2022/03/26 13:13:53;;;;;;;12.43;5.07;;;;;;;;;;5006453;28;20196;-64
2022/03/26 13:16:24;;;;;;;13.17;5.20;;;;;;;;;;5007064;28;20212;-63
2022/03/26 13:18:57;;;;;;;10.93;4.70;;;;;;;;;;5009042;28;20299;-65
2022/03/26 13:21:24;;;;;;;17.37;4.83;;;;;;;;;;5010405;28;20203;-66
2022/03/26 13:24:03;;;;;;;13.57;4.57;;;;;;;;;;5004660;28;20200;-64
2022/03/26 13:26:50;;;;;;;14.80;4.27;;;;;;;;;;5010765;28;20855;-65
2022/03/26 13:29:19;;;;;;;16.93;5.10;;;;;;;;;;5024644;28;20240;-65
2022/03/26 13:31:54;;;;;;;12.53;5.00;;;;;;;;;;5006886;28;20193;-66
2022/03/26 13:34:35;;;;;;;20.80;5.40;;;;;;;;;;5007566;28;20200;-64
2022/03/26 13:37:14;;;;;;;98.97;11.47;;;;;;;;;;5010668;28;20209;-66
2022/03/26 13:39:45;;;;;;;49.27;6.80;;;;;;;;;;5008262;28;20212;-64
2022/03/26 13:42:14;;;;;;;14.33;4.63;;;;;;;;;;5010499;28;20227;-65
2022/03/26 13:44:43;;;;;;;70.70;8.17;;;;;;;;;;5007903;28;20228;-64
2022/03/26 13:47:15;;;;;;;48.93;6.90;;;;;;;;;;5005371;28;20193;-64
2022/03/26 13:49:42;;;;;;;58.50;6.17;;;;;;;;;;5010037;28;20208;-64
2022/03/26 13:52:31;;;;;;;40.00;6.67;;;;;;;;;;5024901;28;20189;-65
2022/03/26 13:54:59;;;;;;;18.53;5.10;;;;;;;;;;5004692;28;20209;-64
2022/03/26 13:57:33;;;;;;;14.10;5.13;;;;;;;;;;5003584;28;20207;-64
2022/03/26 14:00:09;;;;;;;18.60;5.10;;;;;;;;;;5008765;28;20191;-66
2022/03/26 14:02:39;;;;;;;20.23;6.37;;;;;;;;;;4989772;28;20197;-64
2022/03/26 14:05:28;;;;;;;56.10;7.30;;;;;;;;;;5005532;28;20306;-64
2022/03/26 14:08:04;;;;;;;37.67;7.37;;;;;;;;;;5002691;28;20201;-65
2022/03/26 14:10:36;;;;;;;33.87;6.27;;;;;;;;;;5003012;28;20228;-65
2022/03/26 14:13:08;;;;;;;22.77;5.63;;;;;;;;;;5003430;28;20225;-66
2022/03/26 14:15:35;;;;;;;37.07;6.83;;;;;;;;;;5007041;28;20212;-65
2022/03/26 14:18:02;;;;;;;48.90;7.63;;;;;;;;;;5004853;28;20230;-63
2022/03/26 14:20:31;;;;;;;40.33;6.13;;;;;;;;;;5001111;28;20193;-63
2022/03/26 14:23:01;;;;;;;47.80;6.93;;;;;;;;;;5001638;28;20197;-64
2022/03/26 14:25:30;;;;;;;65.80;7.63;;;;;;;;;;5001778;28;20231;-64
2022/03/26 14:27:59;;;;;;;79.23;8.50;;;;;;;;;;5002837;28;22060;-64
2022/03/26 14:30:26;;;;;;;21.53;5.60;;;;;;;;;;5016714;28;20307;-65
2022/03/26 14:32:58;;;;;;;13.77;4.90;;;;;;;;;;5005606;28;20299;-64
2022/03/26 14:35:26;;;;;;;12.97;5.23;;;;;;;;;;5021159;28;20669;-65
2022/03/26 14:37:52;;;;;;;18.93;5.67;;;;;;;;;;5004706;28;20317;-65
2022/03/26 14:40:20;;;;;;;14.67;5.13;;;;;;;;;;5005143;28;20601;-65
2022/03/26 14:42:47;;;;;;;18.03;5.70;;;;;;;;;;5008102;28;20219;-64
2022/03/26 14:45:13;;;;;;;14.37;5.27;;;;;;;;;;5008792;28;20552;-65
2022/03/26 14:47:40;;;;;;;17.67;5.83;;;;;;;;;;5008564;28;20207;-63
2022/03/26 14:50:11;;;;;;;12.80;5.30;;;;;;;;;;4995451;28;20233;-64
2022/03/26 14:52:40;;;;;;;20.07;5.37;;;;;;;;;;5007207;28;20226;-63